sensor_id;sensor_type;location;lat;lon;timestamp;P1;durP1;ratioP1;P2;durP2;ratioP2
13386;SDS011;6763;48.524;9.044;2023-03-01T00:00:39;2.20;;;1.70;;
13386;SDS011;6763;48.524;9.044;2023-03-01T00:03:04;6.57;;;2.20;;
13386;SDS011;6763;48.524;9.044;2023-03-01T00:05:29;2.47;;;2.27;;
13386;SDS011;6763;48.524;9.044;2023-03-01T00:07:55;3.87;;;3.00;;
13386;SDS011;6763;48.524;9.044;2023-03-01T00:10:20;3.50;;;1.57;;
13386;SDS011;6763;48.524;9.044;2023-03-01T00:12:45;5.40;;;3.07;;
13386;SDS011;6763;48.524;9.044;2023-03-01T00:15:11;1.67;;;1.43;;
13386;SDS011;6763;48.524;9.044;2023-03-01T00:17:36;2.33;;;2.13;;
13386;SDS011;6763;48.524;9.044;2023-03-01T00:20:02;4.23;;;1.80;;
13386;SDS011;6763;48.524;9.044;2023-03-01T00:22:28;3.80;;;2.57;;
13386;SDS011;6763;48.524;9.044;2023-03-01T00:24:53;2.57;;;2.33;;
13386;SDS011;6763;48.524;9.044;2023-03-01T00:27:19;3.80;;;3.37;;
13386;SDS011;6763;48.524;9.044;2023-03-01T00:29:44;14.30;;;2.93;;
13386;SDS011;6763;48.524;9.044;2023-03-01T00:32:10;3.53;;;2.43;;
13386;SDS011;6763;48.524;9.044;2023-03-01T00:34:35;2.30;;;2.10;;
13386;SDS011;6763;48.524;9.044;2023-03-01T00:37:00;3.70;;;2.30;;
13386;SDS011;6763;48.524;9.044;2023-03-01T00:39:30;3.27;;;2.47;;
13386;SDS011;6763;48.524;9.044;2023-03-01T00:41:56;2.20;;;2.03;;
13386;SDS011;6763;48.524;9.044;2023-03-01T00:44:21;3.03;;;2.80;;
13386;SDS011;6763;48.524;9.044;2023-03-01T00:46:47;3.27;;;2.13;;
13386;SDS011;6763;48.524;9.044;2023-03-01T00:49:12;5.37;;;2.73;;
13386;SDS011;6763;48.524;9.044;2023-03-01T00:51:38;4.90;;;2.93;;
13386;SDS011;6763;48.524;9.044;2023-03-01T00:54:07;1.60;;;1.30;;
13386;SDS011;6763;48.524;9.044;2023-03-01T00:56:34;2.13;;;1.93;;
13386;SDS011;6763;48.524;9.044;2023-03-01T00:58:59;3.23;;;2.63;;
13386;SDS011;6763;48.524;9.044;2023-03-01T01:01:26;4.00;;;2.23;;
13386;SDS011;6763;48.524;9.044;2023-03-01T01:03:57;1.80;;;1.63;;
13386;SDS011;6763;48.524;9.044;2023-03-01T01:06:25;2.03;;;1.87;;
13386;SDS011;6763;48.524;9.044;2023-03-01T01:09:11;1.60;;;1.50;;
13386;SDS011;6763;48.524;9.044;2023-03-01T01:11:42;1.43;;;1.33;;
13386;SDS011;6763;48.524;9.044;2023-03-01T01:14:08;3.10;;;2.80;;
13386;SDS011;6763;48.524;9.044;2023-03-01T01:16:34;2.40;;;1.93;;
13386;SDS011;6763;48.524;9.044;2023-03-01T01:18:59;3.43;;;2.83;;
13386;SDS011;6763;48.524;9.044;2023-03-01T01:21:24;4.67;;;2.67;;
13386;SDS011;6763;48.524;9.044;2023-03-01T01:23:51;2.77;;;2.57;;
13386;SDS011;6763;48.524;9.044;2023-03-01T01:26:20;5.77;;;2.77;;
13386;SDS011;6763;48.524;9.044;2023-03-01T01:28:51;3.10;;;2.27;;
13386;SDS011;6763;48.524;9.044;2023-03-01T01:31:16;3.80;;;2.57;;
13386;SDS011;6763;48.524;9.044;2023-03-01T01:33:42;3.00;;;2.20;;
13386;SDS011;6763;48.524;9.044;2023-03-01T01:36:08;1.63;;;1.53;;
13386;SDS011;6763;48.524;9.044;2023-03-01T01:38:34;1.87;;;1.77;;
13386;SDS011;6763;48.524;9.044;2023-03-01T01:41:01;2.70;;;2.33;;
13386;SDS011;6763;48.524;9.044;2023-03-01T01:43:29;2.93;;;2.50;;
13386;SDS011;6763;48.524;9.044;2023-03-01T01:46:06;3.87;;;2.47;;
13386;SDS011;6763;48.524;9.044;2023-03-01T01:48:41;2.53;;;2.33;;
13386;SDS011;6763;48.524;9.044;2023-03-01T01:51:13;2.53;;;1.97;;
13386;SDS011;6763;48.524;9.044;2023-03-01T01:53:44;2.93;;;2.40;;
13386;SDS011;6763;48.524;9.044;2023-03-01T01:56:15;2.77;;;2.53;;
13386;SDS011;6763;48.524;9.044;2023-03-01T01:58:43;3.93;;;2.63;;
13386;SDS011;6763;48.524;9.044;2023-03-01T02:01:10;1.93;;;1.60;;
13386;SDS011;6763;48.524;9.044;2023-03-01T02:03:36;2.70;;;2.03;;
13386;SDS011;6763;48.524;9.044;2023-03-01T02:06:11;3.00;;;2.40;;
13386;SDS011;6763;48.524;9.044;2023-03-01T02:08:38;3.20;;;2.27;;
13386;SDS011;6763;48.524;9.044;2023-03-01T02:11:06;2.53;;;2.33;;
13386;SDS011;6763;48.524;9.044;2023-03-01T02:13:34;8.60;;;3.13;;
13386;SDS011;6763;48.524;9.044;2023-03-01T02:16:10;3.67;;;1.70;;
13386;SDS011;6763;48.524;9.044;2023-03-01T02:18:38;3.33;;;2.40;;
13386;SDS011;6763;48.524;9.044;2023-03-01T02:21:08;3.70;;;2.47;;
13386;SDS011;6763;48.524;9.044;2023-03-01T02:23:47;2.50;;;2.20;;
13386;SDS011;6763;48.524;9.044;2023-03-01T02:28:56;3.80;;;2.40;;
13386;SDS011;6763;48.524;9.044;2023-03-01T02:31:22;2.70;;;1.93;;
13386;SDS011;6763;48.524;9.044;2023-03-01T02:34:06;3.97;;;2.67;;
13386;SDS011;6763;48.524;9.044;2023-03-01T02:36:56;3.67;;;2.67;;
13386;SDS011;6763;48.524;9.044;2023-03-01T02:39:36;5.70;;;3.70;;
13386;SDS011;6763;48.524;9.044;2023-03-01T02:42:06;6.57;;;3.00;;
13386;SDS011;6763;48.524;9.044;2023-03-01T02:44:35;2.83;;;2.63;;
13386;SDS011;6763;48.524;9.044;2023-03-01T02:47:01;3.00;;;2.43;;
13386;SDS011;6763;48.524;9.044;2023-03-01T02:49:29;4.10;;;2.73;;
13386;SDS011;6763;48.524;9.044;2023-03-01T02:57:26;2.17;;;2.00;;
13386;SDS011;6763;48.524;9.044;2023-03-01T02:59:54;4.90;;;3.27;;
13386;SDS011;6763;48.524;9.044;2023-03-01T03:02:24;12.93;;;2.87;;
13386;SDS011;6763;48.524;9.044;2023-03-01T03:05:02;5.07;;;3.23;;
13386;SDS011;6763;48.524;9.044;2023-03-01T03:07:31;7.73;;;3.63;;
13386;SDS011;6763;48.524;9.044;2023-03-01T03:09:58;3.40;;;2.50;;
13386;SDS011;6763;48.524;9.044;2023-03-01T03:12:23;6.57;;;3.73;;
13386;SDS011;6763;48.524;9.044;2023-03-01T03:14:48;5.57;;;3.47;;
13386;SDS011;6763;48.524;9.044;2023-03-01T03:17:14;2.87;;;2.13;;
13386;SDS011;6763;48.524;9.044;2023-03-01T03:19:39;3.10;;;2.37;;
13386;SDS011;6763;48.524;9.044;2023-03-01T03:22:05;4.80;;;2.70;;
13386;SDS011;6763;48.524;9.044;2023-03-01T03:24:30;5.43;;;3.37;;
13386;SDS011;6763;48.524;9.044;2023-03-01T03:27:02;3.67;;;2.90;;
13386;SDS011;6763;48.524;9.044;2023-03-01T03:29:31;5.10;;;3.13;;
13386;SDS011;6763;48.524;9.044;2023-03-01T03:31:57;4.80;;;3.70;;
13386;SDS011;6763;48.524;9.044;2023-03-01T03:34:23;2.93;;;2.60;;
13386;SDS011;6763;48.524;9.044;2023-03-01T03:36:55;4.72;;;3.85;;
13386;SDS011;6763;48.524;9.044;2023-03-01T03:39:24;3.27;;;2.50;;
13386;SDS011;6763;48.524;9.044;2023-03-01T03:41:51;4.63;;;2.80;;
13386;SDS011;6763;48.524;9.044;2023-03-01T03:44:17;5.03;;;3.55;;
13386;SDS011;6763;48.524;9.044;2023-03-01T03:46:42;3.50;;;2.67;;
13386;SDS011;6763;48.524;9.044;2023-03-01T03:49:08;4.57;;;3.47;;
13386;SDS011;6763;48.524;9.044;2023-03-01T03:51:33;4.95;;;3.17;;
13386;SDS011;6763;48.524;9.044;2023-03-01T03:53:58;3.17;;;2.63;;
13386;SDS011;6763;48.524;9.044;2023-03-01T03:56:23;3.72;;;3.35;;
13386;SDS011;6763;48.524;9.044;2023-03-01T03:58:51;5.90;;;2.97;;
13386;SDS011;6763;48.524;9.044;2023-03-01T04:01:18;3.53;;;2.95;;
13386;SDS011;6763;48.524;9.044;2023-03-01T04:03:43;2.88;;;2.58;;
13386;SDS011;6763;48.524;9.044;2023-03-01T04:06:12;2.88;;;2.38;;
13386;SDS011;6763;48.524;9.044;2023-03-01T04:08:39;3.50;;;2.40;;
13386;SDS011;6763;48.524;9.044;2023-03-01T04:11:06;5.15;;;2.80;;
13386;SDS011;6763;48.524;9.044;2023-03-01T04:13:51;2.92;;;2.72;;
13386;SDS011;6763;48.524;9.044;2023-03-01T04:16:18;3.70;;;2.83;;
13386;SDS011;6763;48.524;9.044;2023-03-01T04:18:43;3.78;;;3.38;;
13386;SDS011;6763;48.524;9.044;2023-03-01T04:21:09;3.15;;;2.70;;
13386;SDS011;6763;48.524;9.044;2023-03-01T04:23:36;7.47;;;3.42;;
13386;SDS011;6763;48.524;9.044;2023-03-01T04:26:02;3.53;;;2.33;;
13386;SDS011;6763;48.524;9.044;2023-03-01T04:30:56;3.58;;;3.15;;
13386;SDS011;6763;48.524;9.044;2023-03-01T04:33:22;5.00;;;3.25;;
13386;SDS011;6763;48.524;9.044;2023-03-01T04:35:49;5.43;;;3.43;;
13386;SDS011;6763;48.524;9.044;2023-03-01T04:38:15;5.38;;;3.13;;
13386;SDS011;6763;48.524;9.044;2023-03-01T04:40:41;5.47;;;3.42;;
13386;SDS011;6763;48.524;9.044;2023-03-01T04:43:08;4.38;;;3.45;;
13386;SDS011;6763;48.524;9.044;2023-03-01T04:45:34;6.13;;;4.00;;
13386;SDS011;6763;48.524;9.044;2023-03-01T04:47:59;6.40;;;3.63;;
13386;SDS011;6763;48.524;9.044;2023-03-01T04:50:25;2.78;;;2.50;;
13386;SDS011;6763;48.524;9.044;2023-03-01T04:52:50;5.97;;;4.72;;
13386;SDS011;6763;48.524;9.044;2023-03-01T04:55:16;3.80;;;3.35;;
13386;SDS011;6763;48.524;9.044;2023-03-01T04:57:41;3.08;;;2.72;;
13386;SDS011;6763;48.524;9.044;2023-03-01T05:00:08;6.57;;;3.17;;
13386;SDS011;6763;48.524;9.044;2023-03-01T05:02:49;4.73;;;3.33;;
13386;SDS011;6763;48.524;9.044;2023-03-01T05:05:18;4.90;;;4.03;;
13386;SDS011;6763;48.524;9.044;2023-03-01T05:07:51;6.20;;;3.20;;
13386;SDS011;6763;48.524;9.044;2023-03-01T05:10:17;6.38;;;3.60;;
13386;SDS011;6763;48.524;9.044;2023-03-01T05:12:42;4.90;;;3.50;;
13386;SDS011;6763;48.524;9.044;2023-03-01T05:15:07;4.72;;;3.15;;
13386;SDS011;6763;48.524;9.044;2023-03-01T05:17:33;6.57;;;3.70;;
13386;SDS011;6763;48.524;9.044;2023-03-01T05:19:59;5.68;;;3.17;;
13386;SDS011;6763;48.524;9.044;2023-03-01T05:22:25;4.13;;;3.38;;
13386;SDS011;6763;48.524;9.044;2023-03-01T05:24:50;4.70;;;2.70;;
13386;SDS011;6763;48.524;9.044;2023-03-01T05:27:16;8.38;;;3.95;;
13386;SDS011;6763;48.524;9.044;2023-03-01T05:29:41;5.47;;;4.57;;
13386;SDS011;6763;48.524;9.044;2023-03-01T05:32:06;6.35;;;3.80;;
13386;SDS011;6763;48.524;9.044;2023-03-01T05:34:34;3.63;;;2.80;;
13386;SDS011;6763;48.524;9.044;2023-03-01T05:37:01;4.50;;;3.78;;
13386;SDS011;6763;48.524;9.044;2023-03-01T05:39:28;6.75;;;3.38;;
13386;SDS011;6763;48.524;9.044;2023-03-01T05:41:55;5.70;;;3.60;;
13386;SDS011;6763;48.524;9.044;2023-03-01T05:44:22;3.97;;;3.63;;
13386;SDS011;6763;48.524;9.044;2023-03-01T05:46:48;6.30;;;3.60;;
13386;SDS011;6763;48.524;9.044;2023-03-01T05:49:14;6.00;;;3.13;;
13386;SDS011;6763;48.524;9.044;2023-03-01T05:51:40;3.70;;;2.75;;
13386;SDS011;6763;48.524;9.044;2023-03-01T05:54:06;4.78;;;4.03;;
13386;SDS011;6763;48.524;9.044;2023-03-01T05:56:33;7.50;;;2.53;;
13386;SDS011;6763;48.524;9.044;2023-03-01T05:58:59;6.07;;;3.88;;
13386;SDS011;6763;48.524;9.044;2023-03-01T06:01:25;4.57;;;3.13;;
13386;SDS011;6763;48.524;9.044;2023-03-01T06:03:51;5.15;;;3.67;;
13386;SDS011;6763;48.524;9.044;2023-03-01T06:06:16;5.28;;;3.50;;
13386;SDS011;6763;48.524;9.044;2023-03-01T06:08:41;4.38;;;3.40;;
13386;SDS011;6763;48.524;9.044;2023-03-01T06:11:07;4.70;;;4.03;;
13386;SDS011;6763;48.524;9.044;2023-03-01T06:13:32;3.88;;;3.33;;
13386;SDS011;6763;48.524;9.044;2023-03-01T06:15:58;8.20;;;4.85;;
13386;SDS011;6763;48.524;9.044;2023-03-01T06:18:23;8.57;;;3.05;;
13386;SDS011;6763;48.524;9.044;2023-03-01T06:20:52;5.20;;;3.20;;
13386;SDS011;6763;48.524;9.044;2023-03-01T06:23:19;4.05;;;3.35;;
13386;SDS011;6763;48.524;9.044;2023-03-01T06:25:44;6.18;;;3.60;;
13386;SDS011;6763;48.524;9.044;2023-03-01T06:28:09;8.63;;;3.63;;
13386;SDS011;6763;48.524;9.044;2023-03-01T06:30:35;6.05;;;3.78;;
13386;SDS011;6763;48.524;9.044;2023-03-01T06:33:00;5.93;;;3.47;;
13386;SDS011;6763;48.524;9.044;2023-03-01T06:35:27;10.55;;;4.95;;
13386;SDS011;6763;48.524;9.044;2023-03-01T06:37:54;6.97;;;3.63;;
13386;SDS011;6763;48.524;9.044;2023-03-01T06:40:20;8.57;;;4.88;;
13386;SDS011;6763;48.524;9.044;2023-03-01T06:42:48;6.85;;;3.88;;
13386;SDS011;6763;48.524;9.044;2023-03-01T06:45:15;4.80;;;3.50;;
13386;SDS011;6763;48.524;9.044;2023-03-01T06:47:41;5.00;;;4.45;;
13386;SDS011;6763;48.524;9.044;2023-03-01T06:50:06;7.50;;;3.92;;
13386;SDS011;6763;48.524;9.044;2023-03-01T06:52:32;6.50;;;3.85;;
13386;SDS011;6763;48.524;9.044;2023-03-01T06:54:57;9.25;;;4.35;;
13386;SDS011;6763;48.524;9.044;2023-03-01T06:57:23;6.43;;;3.38;;
13386;SDS011;6763;48.524;9.044;2023-03-01T06:59:49;9.43;;;4.28;;
13386;SDS011;6763;48.524;9.044;2023-03-01T07:02:14;5.45;;;3.13;;
13386;SDS011;6763;48.524;9.044;2023-03-01T07:04:40;6.57;;;4.28;;
13386;SDS011;6763;48.524;9.044;2023-03-01T07:07:06;4.53;;;3.55;;
13386;SDS011;6763;48.524;9.044;2023-03-01T07:09:31;5.47;;;3.95;;
13386;SDS011;6763;48.524;9.044;2023-03-01T07:11:57;6.03;;;3.58;;
13386;SDS011;6763;48.524;9.044;2023-03-01T07:14:23;6.00;;;3.42;;
13386;SDS011;6763;48.524;9.044;2023-03-01T07:16:51;8.88;;;3.55;;
13386;SDS011;6763;48.524;9.044;2023-03-01T07:19:17;3.55;;;2.38;;
13386;SDS011;6763;48.524;9.044;2023-03-01T07:21:43;6.50;;;3.47;;
13386;SDS011;6763;48.524;9.044;2023-03-01T07:24:08;7.43;;;4.32;;
13386;SDS011;6763;48.524;9.044;2023-03-01T07:26:33;8.15;;;3.33;;
13386;SDS011;6763;48.524;9.044;2023-03-01T07:28:59;4.90;;;3.70;;
13386;SDS011;6763;48.524;9.044;2023-03-01T07:31:25;7.28;;;3.60;;
13386;SDS011;6763;48.524;9.044;2023-03-01T07:33:53;6.28;;;2.95;;
13386;SDS011;6763;48.524;9.044;2023-03-01T07:36:19;6.45;;;3.15;;
13386;SDS011;6763;48.524;9.044;2023-03-01T07:38:44;4.75;;;3.58;;
13386;SDS011;6763;48.524;9.044;2023-03-01T07:41:10;7.68;;;5.32;;
13386;SDS011;6763;48.524;9.044;2023-03-01T07:43:35;6.72;;;4.07;;
13386;SDS011;6763;48.524;9.044;2023-03-01T07:46:00;6.82;;;4.68;;
13386;SDS011;6763;48.524;9.044;2023-03-01T07:48:27;5.95;;;3.88;;
13386;SDS011;6763;48.524;9.044;2023-03-01T07:50:52;4.28;;;3.55;;
13386;SDS011;6763;48.524;9.044;2023-03-01T07:53:18;6.72;;;5.00;;
13386;SDS011;6763;48.524;9.044;2023-03-01T07:55:43;6.93;;;3.20;;
13386;SDS011;6763;48.524;9.044;2023-03-01T07:58:09;5.47;;;3.05;;
13386;SDS011;6763;48.524;9.044;2023-03-01T08:00:34;6.13;;;4.28;;
13386;SDS011;6763;48.524;9.044;2023-03-01T08:03:00;5.45;;;3.83;;
13386;SDS011;6763;48.524;9.044;2023-03-01T08:05:26;6.68;;;3.80;;
13386;SDS011;6763;48.524;9.044;2023-03-01T08:07:51;6.55;;;4.13;;
13386;SDS011;6763;48.524;9.044;2023-03-01T08:10:17;6.38;;;3.90;;
13386;SDS011;6763;48.524;9.044;2023-03-01T08:12:42;6.95;;;3.85;;
13386;SDS011;6763;48.524;9.044;2023-03-01T08:15:08;6.30;;;4.15;;
13386;SDS011;6763;48.524;9.044;2023-03-01T08:17:34;8.20;;;4.22;;
13386;SDS011;6763;48.524;9.044;2023-03-01T08:19:59;7.57;;;4.28;;
13386;SDS011;6763;48.524;9.044;2023-03-01T08:22:24;9.30;;;4.93;;
13386;SDS011;6763;48.524;9.044;2023-03-01T08:24:51;4.88;;;3.83;;
13386;SDS011;6763;48.524;9.044;2023-03-01T08:27:16;6.95;;;3.97;;
13386;SDS011;6763;48.524;9.044;2023-03-01T08:29:41;5.03;;;3.78;;
13386;SDS011;6763;48.524;9.044;2023-03-01T08:32:07;4.70;;;3.60;;
13386;SDS011;6763;48.524;9.044;2023-03-01T08:34:33;7.15;;;4.55;;
13386;SDS011;6763;48.524;9.044;2023-03-01T08:37:00;6.18;;;4.13;;
13386;SDS011;6763;48.524;9.044;2023-03-01T08:39:26;8.10;;;4.40;;
13386;SDS011;6763;48.524;9.044;2023-03-01T08:41:52;6.65;;;3.88;;
13386;SDS011;6763;48.524;9.044;2023-03-01T08:44:17;8.40;;;4.13;;
13386;SDS011;6763;48.524;9.044;2023-03-01T08:46:42;6.90;;;3.85;;
13386;SDS011;6763;48.524;9.044;2023-03-01T08:49:11;6.82;;;3.50;;
13386;SDS011;6763;48.524;9.044;2023-03-01T08:51:40;8.27;;;4.15;;
13386;SDS011;6763;48.524;9.044;2023-03-01T08:54:09;6.53;;;4.38;;
13386;SDS011;6763;48.524;9.044;2023-03-01T08:56:36;6.90;;;4.53;;
13386;SDS011;6763;48.524;9.044;2023-03-01T08:59:02;10.10;;;4.43;;
13386;SDS011;6763;48.524;9.044;2023-03-01T09:01:28;9.45;;;4.45;;
13386;SDS011;6763;48.524;9.044;2023-03-01T09:03:53;8.38;;;4.80;;
13386;SDS011;6763;48.524;9.044;2023-03-01T09:06:19;7.88;;;4.55;;
13386;SDS011;6763;48.524;9.044;2023-03-01T09:08:45;6.95;;;3.10;;
13386;SDS011;6763;48.524;9.044;2023-03-01T09:11:14;4.22;;;3.10;;
13386;SDS011;6763;48.524;9.044;2023-03-01T09:13:44;10.07;;;4.78;;
13386;SDS011;6763;48.524;9.044;2023-03-01T09:16:11;8.77;;;3.80;;
13386;SDS011;6763;48.524;9.044;2023-03-01T09:18:38;8.45;;;4.95;;
13386;SDS011;6763;48.524;9.044;2023-03-01T09:21:04;5.00;;;3.78;;
13386;SDS011;6763;48.524;9.044;2023-03-01T09:23:35;5.68;;;3.88;;
13386;SDS011;6763;48.524;9.044;2023-03-01T09:26:09;6.05;;;4.28;;
13386;SDS011;6763;48.524;9.044;2023-03-01T09:28:35;5.60;;;4.07;;
13386;SDS011;6763;48.524;9.044;2023-03-01T09:31:01;6.95;;;4.50;;
13386;SDS011;6763;48.524;9.044;2023-03-01T09:33:28;7.32;;;4.65;;
13386;SDS011;6763;48.524;9.044;2023-03-01T09:35:58;8.07;;;4.53;;
13386;SDS011;6763;48.524;9.044;2023-03-01T09:38:32;6.65;;;4.18;;
13386;SDS011;6763;48.524;9.044;2023-03-01T09:40:58;6.05;;;4.40;;
13386;SDS011;6763;48.524;9.044;2023-03-01T09:43:30;7.50;;;3.97;;
13386;SDS011;6763;48.524;9.044;2023-03-01T09:46:04;4.47;;;3.55;;
13386;SDS011;6763;48.524;9.044;2023-03-01T09:48:37;6.78;;;3.80;;
13386;SDS011;6763;48.524;9.044;2023-03-01T09:51:08;6.07;;;4.13;;
13386;SDS011;6763;48.524;9.044;2023-03-01T09:53:42;6.18;;;4.25;;
13386;SDS011;6763;48.524;9.044;2023-03-01T10:01:38;6.93;;;3.60;;
13386;SDS011;6763;48.524;9.044;2023-03-01T10:09:34;4.95;;;3.45;;
13386;SDS011;6763;48.524;9.044;2023-03-01T10:12:01;6.05;;;4.10;;
13386;SDS011;6763;48.524;9.044;2023-03-01T10:14:34;8.82;;;5.07;;
13386;SDS011;6763;48.524;9.044;2023-03-01T10:19:54;7.22;;;4.93;;
13386;SDS011;6763;48.524;9.044;2023-03-01T10:22:27;3.75;;;3.00;;
13386;SDS011;6763;48.524;9.044;2023-03-01T10:24:57;7.78;;;4.72;;
13386;SDS011;6763;48.524;9.044;2023-03-01T10:27:25;8.75;;;4.85;;
13386;SDS011;6763;48.524;9.044;2023-03-01T10:32:36;5.90;;;3.72;;
13386;SDS011;6763;48.524;9.044;2023-03-01T10:35:13;7.57;;;4.43;;
13386;SDS011;6763;48.524;9.044;2023-03-01T10:37:46;8.23;;;4.95;;
13386;SDS011;6763;48.524;9.044;2023-03-01T10:40:27;6.75;;;4.57;;
13386;SDS011;6763;48.524;9.044;2023-03-01T10:42:52;5.15;;;4.07;;
13386;SDS011;6763;48.524;9.044;2023-03-01T10:50:42;6.32;;;4.65;;
13386;SDS011;6763;48.524;9.044;2023-03-01T10:53:29;5.78;;;4.28;;
13386;SDS011;6763;48.524;9.044;2023-03-01T10:59:02;5.90;;;3.88;;
13386;SDS011;6763;48.524;9.044;2023-03-01T11:01:33;6.75;;;4.40;;
13386;SDS011;6763;48.524;9.044;2023-03-01T11:06:31;8.90;;;5.35;;
13386;SDS011;6763;48.524;9.044;2023-03-01T11:09:17;8.82;;;4.88;;
13386;SDS011;6763;48.524;9.044;2023-03-01T11:11:45;6.07;;;4.45;;
13386;SDS011;6763;48.524;9.044;2023-03-01T11:14:17;7.78;;;4.30;;
13386;SDS011;6763;48.524;9.044;2023-03-01T11:16:47;4.00;;;2.53;;
13386;SDS011;6763;48.524;9.044;2023-03-01T11:19:20;9.77;;;4.82;;
13386;SDS011;6763;48.524;9.044;2023-03-01T11:21:52;8.38;;;5.43;;
13386;SDS011;6763;48.524;9.044;2023-03-01T11:24:43;7.53;;;4.78;;
13386;SDS011;6763;48.524;9.044;2023-03-01T11:32:30;6.72;;;4.43;;
13386;SDS011;6763;48.524;9.044;2023-03-01T11:35:08;6.25;;;4.28;;
13386;SDS011;6763;48.524;9.044;2023-03-01T11:42:52;6.32;;;3.88;;
13386;SDS011;6763;48.524;9.044;2023-03-01T11:45:18;8.75;;;4.93;;
13386;SDS011;6763;48.524;9.044;2023-03-01T11:48:02;7.28;;;5.35;;
13386;SDS011;6763;48.524;9.044;2023-03-01T11:50:44;4.45;;;3.47;;
13386;SDS011;6763;48.524;9.044;2023-03-01T11:53:22;7.35;;;4.32;;
13386;SDS011;6763;48.524;9.044;2023-03-01T12:04:32;7.82;;;5.07;;
13386;SDS011;6763;48.524;9.044;2023-03-01T12:12:34;6.07;;;4.05;;
13386;SDS011;6763;48.524;9.044;2023-03-01T12:17:59;6.22;;;4.10;;
13386;SDS011;6763;48.524;9.044;2023-03-01T12:20:45;6.90;;;4.72;;
13386;SDS011;6763;48.524;9.044;2023-03-01T12:26:50;9.82;;;4.63;;
13386;SDS011;6763;48.524;9.044;2023-03-01T12:29:30;6.47;;;4.75;;
13386;SDS011;6763;48.524;9.044;2023-03-01T12:32:12;5.43;;;3.60;;
13386;SDS011;6763;48.524;9.044;2023-03-01T12:35:00;6.20;;;4.00;;
13386;SDS011;6763;48.524;9.044;2023-03-01T12:51:05;6.13;;;4.10;;
13386;SDS011;6763;48.524;9.044;2023-03-01T12:53:36;6.18;;;4.20;;
13386;SDS011;6763;48.524;9.044;2023-03-01T12:56:10;6.47;;;3.65;;
13386;SDS011;6763;48.524;9.044;2023-03-01T12:58:46;5.05;;;3.92;;
13386;SDS011;6763;48.524;9.044;2023-03-01T13:06:39;6.00;;;3.85;;
13386;SDS011;6763;48.524;9.044;2023-03-01T13:11:50;5.53;;;3.63;;
13386;SDS011;6763;48.524;9.044;2023-03-01T13:16:48;4.60;;;3.67;;
13386;SDS011;6763;48.524;9.044;2023-03-01T13:19:16;5.57;;;4.43;;
13386;SDS011;6763;48.524;9.044;2023-03-01T13:21:42;5.88;;;3.45;;
13386;SDS011;6763;48.524;9.044;2023-03-01T13:29:51;7.07;;;4.70;;
13386;SDS011;6763;48.524;9.044;2023-03-01T13:32:34;7.53;;;4.40;;
13386;SDS011;6763;48.524;9.044;2023-03-01T13:37:43;9.48;;;4.40;;
13386;SDS011;6763;48.524;9.044;2023-03-01T13:42:42;5.38;;;3.85;;
13386;SDS011;6763;48.524;9.044;2023-03-01T13:47:58;7.75;;;4.60;;
13386;SDS011;6763;48.524;9.044;2023-03-01T13:50:28;5.95;;;4.13;;
13386;SDS011;6763;48.524;9.044;2023-03-01T13:53:02;8.85;;;4.53;;
13386;SDS011;6763;48.524;9.044;2023-03-01T13:58:16;5.68;;;3.58;;
13386;SDS011;6763;48.524;9.044;2023-03-01T14:00:44;6.88;;;4.40;;
13386;SDS011;6763;48.524;9.044;2023-03-01T14:03:14;6.07;;;4.22;;
13386;SDS011;6763;48.524;9.044;2023-03-01T14:05:57;5.82;;;3.65;;
13386;SDS011;6763;48.524;9.044;2023-03-01T14:08:28;6.15;;;3.75;;
13386;SDS011;6763;48.524;9.044;2023-03-01T14:19:33;8.13;;;4.85;;
13386;SDS011;6763;48.524;9.044;2023-03-01T14:21:59;7.35;;;4.50;;
13386;SDS011;6763;48.524;9.044;2023-03-01T14:24:38;4.03;;;2.33;;
13386;SDS011;6763;48.524;9.044;2023-03-01T14:27:12;8.05;;;4.13;;
13386;SDS011;6763;48.524;9.044;2023-03-01T14:29:39;6.35;;;4.38;;
13386;SDS011;6763;48.524;9.044;2023-03-01T14:32:19;6.63;;;3.60;;
13386;SDS011;6763;48.524;9.044;2023-03-01T14:34:47;7.50;;;4.55;;
13386;SDS011;6763;48.524;9.044;2023-03-01T14:37:21;6.85;;;4.45;;
13386;SDS011;6763;48.524;9.044;2023-03-01T14:39:51;8.02;;;5.03;;
13386;SDS011;6763;48.524;9.044;2023-03-01T14:42:17;8.10;;;4.60;;
13386;SDS011;6763;48.524;9.044;2023-03-01T14:44:46;7.32;;;4.60;;
13386;SDS011;6763;48.524;9.044;2023-03-01T14:47:15;6.85;;;4.45;;
13386;SDS011;6763;48.524;9.044;2023-03-01T14:49:49;6.93;;;3.67;;
13386;SDS011;6763;48.524;9.044;2023-03-01T14:52:21;5.38;;;3.75;;
13386;SDS011;6763;48.524;9.044;2023-03-01T14:54:51;6.30;;;4.35;;
13386;SDS011;6763;48.524;9.044;2023-03-01T14:57:19;7.85;;;4.13;;
13386;SDS011;6763;48.524;9.044;2023-03-01T14:59:47;4.45;;;3.45;;
13386;SDS011;6763;48.524;9.044;2023-03-01T15:02:16;5.35;;;3.72;;
13386;SDS011;6763;48.524;9.044;2023-03-01T15:04:48;4.78;;;3.10;;
13386;SDS011;6763;48.524;9.044;2023-03-01T15:07:19;5.93;;;4.50;;
13386;SDS011;6763;48.524;9.044;2023-03-01T15:09:48;8.13;;;4.32;;
13386;SDS011;6763;48.524;9.044;2023-03-01T15:15:19;6.82;;;4.45;;
13386;SDS011;6763;48.524;9.044;2023-03-01T15:17:57;6.95;;;4.28;;
13386;SDS011;6763;48.524;9.044;2023-03-01T15:20:26;7.72;;;4.78;;
13386;SDS011;6763;48.524;9.044;2023-03-01T15:22:54;6.20;;;4.28;;
13386;SDS011;6763;48.524;9.044;2023-03-01T15:25:22;10.95;;;4.43;;
13386;SDS011;6763;48.524;9.044;2023-03-01T15:27:50;6.45;;;3.95;;
13386;SDS011;6763;48.524;9.044;2023-03-01T15:30:21;4.88;;;3.75;;
13386;SDS011;6763;48.524;9.044;2023-03-01T15:33:15;5.00;;;3.63;;
13386;SDS011;6763;48.524;9.044;2023-03-01T15:36:03;7.05;;;3.70;;
13386;SDS011;6763;48.524;9.044;2023-03-01T15:38:52;5.95;;;3.95;;
13386;SDS011;6763;48.524;9.044;2023-03-01T15:41:24;5.25;;;3.70;;
13386;SDS011;6763;48.524;9.044;2023-03-01T15:43:51;6.45;;;4.18;;
13386;SDS011;6763;48.524;9.044;2023-03-01T15:48:55;7.70;;;3.90;;
13386;SDS011;6763;48.524;9.044;2023-03-01T15:51:28;7.63;;;4.63;;
13386;SDS011;6763;48.524;9.044;2023-03-01T15:53:56;8.43;;;3.78;;
13386;SDS011;6763;48.524;9.044;2023-03-01T15:56:24;7.05;;;4.43;;
13386;SDS011;6763;48.524;9.044;2023-03-01T15:58:50;5.25;;;3.15;;
13386;SDS011;6763;48.524;9.044;2023-03-01T16:01:15;5.57;;;3.88;;
13386;SDS011;6763;48.524;9.044;2023-03-01T16:03:42;7.25;;;3.72;;
13386;SDS011;6763;48.524;9.044;2023-03-01T16:06:09;4.53;;;3.20;;
13386;SDS011;6763;48.524;9.044;2023-03-01T16:08:35;4.97;;;3.40;;
13386;SDS011;6763;48.524;9.044;2023-03-01T16:11:02;5.47;;;4.25;;
13386;SDS011;6763;48.524;9.044;2023-03-01T16:13:29;7.25;;;5.07;;
13386;SDS011;6763;48.524;9.044;2023-03-01T16:15:56;5.32;;;3.83;;
13386;SDS011;6763;48.524;9.044;2023-03-01T16:18:22;8.70;;;4.70;;
13386;SDS011;6763;48.524;9.044;2023-03-01T16:20:47;5.35;;;3.83;;
13386;SDS011;6763;48.524;9.044;2023-03-01T16:23:14;6.57;;;4.40;;
13386;SDS011;6763;48.524;9.044;2023-03-01T16:25:40;6.97;;;4.40;;
13386;SDS011;6763;48.524;9.044;2023-03-01T16:28:05;7.68;;;4.15;;
13386;SDS011;6763;48.524;9.044;2023-03-01T16:30:34;6.88;;;3.40;;
13386;SDS011;6763;48.524;9.044;2023-03-01T16:33:00;8.43;;;4.45;;
13386;SDS011;6763;48.524;9.044;2023-03-01T16:35:25;8.60;;;4.25;;
13386;SDS011;6763;48.524;9.044;2023-03-01T16:37:51;7.75;;;4.05;;
13386;SDS011;6763;48.524;9.044;2023-03-01T16:42:49;5.97;;;3.85;;
13386;SDS011;6763;48.524;9.044;2023-03-01T16:45:16;6.80;;;3.03;;
13386;SDS011;6763;48.524;9.044;2023-03-01T16:47:41;7.55;;;4.22;;
13386;SDS011;6763;48.524;9.044;2023-03-01T16:50:07;8.98;;;4.22;;
13386;SDS011;6763;48.524;9.044;2023-03-01T16:52:33;4.45;;;3.30;;
13386;SDS011;6763;48.524;9.044;2023-03-01T16:54:59;6.53;;;3.83;;
13386;SDS011;6763;48.524;9.044;2023-03-01T16:57:25;6.93;;;3.85;;
13386;SDS011;6763;48.524;9.044;2023-03-01T16:59:53;6.55;;;4.15;;
13386;SDS011;6763;48.524;9.044;2023-03-01T17:02:19;5.93;;;3.47;;
13386;SDS011;6763;48.524;9.044;2023-03-01T17:04:44;6.32;;;4.32;;
13386;SDS011;6763;48.524;9.044;2023-03-01T17:07:16;7.10;;;4.00;;
13386;SDS011;6763;48.524;9.044;2023-03-01T17:09:41;6.82;;;4.05;;
13386;SDS011;6763;48.524;9.044;2023-03-01T17:12:06;7.35;;;3.97;;
13386;SDS011;6763;48.524;9.044;2023-03-01T17:14:31;6.70;;;3.83;;